New Scandia, Minnesota
Current Conditions -  °F | °C
As of 9:55 PM on Sunday 21 Dec 2014 (Local Time) from KOEO Reporting Station
Light Rain Light Rain  
Wind Chill: 30°   Ceiling: 900
Heat Index: 36°   Visibility: 5mi
Dew Point: 36°   Wind: 8mph
Humidity: 100%   Direction: 150°SSE
Pressure: 29.77"   Gusts: NA
Location:  45.2742°N, 92.8215°W
Report Text: KOEO 220355Z AUTO 15007KT 5SM -RA OVC009 02/02 A2977 RMK AO2 P0002 T00240024
Loading
Personal Weather Stations






























Interactive Weather Map New forecast layout! Learn more

10-Day Weather Forecast

Advertisements
Track Severe Weather on mobile